createdAt,value
2018-03-03T00:00:56.374Z,917.9
2018-03-03T00:01:56.279Z,918
2018-03-03T00:02:56.183Z,918
2018-03-03T00:03:56.459Z,918
2018-03-03T00:04:56.324Z,918
2018-03-03T00:05:56.220Z,918.2
2018-03-03T00:06:56.109Z,918
2018-03-03T00:07:56.016Z,918
2018-03-03T00:08:55.924Z,918
2018-03-03T00:09:55.804Z,917.9
2018-03-03T00:10:55.698Z,918
2018-03-03T00:11:55.599Z,918.1
2018-03-03T00:12:55.528Z,918
2018-03-03T00:13:55.797Z,917.9
2018-03-03T00:14:55.696Z,918
2018-03-03T00:15:55.595Z,918.1
2018-03-03T00:16:55.485Z,918
2018-03-03T00:17:55.381Z,918.2
2018-03-03T00:18:55.304Z,918
2018-03-03T00:19:55.204Z,918
2018-03-03T00:20:55.093Z,918.2
2018-03-03T00:21:54.982Z,918
2018-03-03T00:22:54.864Z,918
2018-03-03T00:23:55.135Z,918
2018-03-03T00:24:55.001Z,918.1
2018-03-03T00:25:54.899Z,917.9
2018-03-03T00:26:54.796Z,918
2018-03-03T00:27:54.685Z,918
2018-03-03T00:28:54.604Z,918
2018-03-03T00:29:54.481Z,918
2018-03-03T00:30:54.391Z,917.9
2018-03-03T00:31:54.269Z,918.1
2018-03-03T00:32:54.147Z,918.1
2018-03-03T00:33:54.412Z,918
2018-03-03T00:34:54.320Z,918
2018-03-03T00:35:54.205Z,918.1
2018-03-03T00:36:54.088Z,918
2018-03-03T00:37:53.978Z,918.1
2018-03-03T00:38:53.859Z,918
2018-03-03T00:39:53.783Z,918.1
2018-03-03T00:40:53.679Z,918.1
2018-03-03T00:41:53.570Z,918
2018-03-03T00:42:53.445Z,918
2018-03-03T00:43:53.728Z,918
2018-03-03T00:44:53.634Z,918
2018-03-03T00:45:53.575Z,918
2018-03-03T00:46:53.462Z,918
2018-03-03T00:47:53.345Z,917.9
2018-03-03T00:48:53.220Z,918.1
2018-03-03T00:49:53.109Z,917.9
2018-03-03T00:50:53.018Z,918
2018-03-03T00:51:52.895Z,918
2018-03-03T00:52:52.775Z,918
2018-03-03T00:53:53.052Z,918.2
2018-03-03T00:54:52.964Z,918.1
2018-03-03T00:55:52.876Z,918.1
2018-03-03T00:56:52.775Z,917.8
2018-03-03T00:57:52.697Z,918
2018-03-03T00:58:52.637Z,918
2018-03-03T00:59:52.562Z,918
2018-03-03T01:00:52.495Z,918
2018-03-03T01:01:52.387Z,918.1
2018-03-03T01:02:52.287Z,918.2
2018-03-03T01:03:52.587Z,918.1
2018-03-03T01:04:52.500Z,917.9
2018-03-03T01:05:52.372Z,918
2018-03-03T01:06:52.285Z,918
2018-03-03T01:07:52.168Z,918
2018-03-03T01:08:52.101Z,918
2018-03-03T01:09:51.978Z,917.9
2018-03-03T01:10:51.861Z,917.9
2018-03-03T01:11:51.763Z,917.9
2018-03-03T01:12:51.648Z,917.8
2018-03-03T01:13:51.910Z,917.9
2018-03-03T01:14:51.812Z,917.9
2018-03-03T01:15:51.689Z,917.9
2018-03-03T01:16:51.581Z,917.8
2018-03-03T01:17:51.493Z,917.9
2018-03-03T01:18:51.393Z,918
2018-03-03T01:19:51.272Z,918.2
2018-03-03T01:20:51.174Z,918
2018-03-03T01:21:51.062Z,917.9
2018-03-03T01:22:50.963Z,918.1
2018-03-03T01:23:51.540Z,918
2018-03-03T01:24:51.410Z,918.1
2018-03-03T01:25:51.278Z,918
2018-03-03T01:26:51.171Z,918
2018-03-03T01:27:51.061Z,918
2018-03-03T01:28:50.968Z,918
2018-03-03T01:29:50.859Z,918
2018-03-03T01:30:50.806Z,918
2018-03-03T01:31:50.717Z,918
2018-03-03T01:32:50.598Z,918
2018-03-03T01:33:51.150Z,918
2018-03-03T01:34:51.088Z,918
2018-03-03T01:35:50.989Z,917.9
2018-03-03T01:36:50.886Z,917.9
2018-03-03T01:37:50.782Z,917.9
2018-03-03T01:38:50.678Z,918
2018-03-03T01:39:50.541Z,917.9
2018-03-03T01:40:50.432Z,918
2018-03-03T01:41:50.316Z,917.9
2018-03-03T01:42:50.217Z,917.9
2018-03-03T01:43:50.501Z,918.2
2018-03-03T01:44:50.671Z,917.9
2018-03-03T01:45:50.560Z,917.9
2018-03-03T01:46:50.461Z,918
2018-03-03T01:47:50.342Z,917.9
2018-03-03T01:48:50.236Z,917.9
2018-03-03T01:49:50.133Z,918
2018-03-03T01:50:50.059Z,917.9
2018-03-03T01:51:49.944Z,918
2018-03-03T01:52:49.839Z,918
2018-03-03T01:53:50.159Z,918
2018-03-03T01:54:50.048Z,917.7
2018-03-03T01:55:49.951Z,917.8
2018-03-03T01:56:49.919Z,917.8
2018-03-03T01:57:49.805Z,917.8
2018-03-03T01:58:49.686Z,917.5
2018-03-03T01:59:49.579Z,918
2018-03-03T02:00:49.468Z,917.8
2018-03-03T02:01:49.357Z,917.7
2018-03-03T02:02:49.229Z,917.8
2018-03-03T02:03:49.480Z,917.8
2018-03-03T02:04:49.429Z,917.8
2018-03-03T02:05:49.301Z,917.7
2018-03-03T02:06:49.186Z,917.8
2018-03-03T02:07:49.065Z,917.7
2018-03-03T02:08:48.950Z,917.7
2018-03-03T02:09:48.824Z,917.8
2018-03-03T02:10:48.699Z,917.7
2018-03-03T02:11:48.597Z,917.6
2018-03-03T02:12:48.485Z,917.7
2018-03-03T02:13:48.745Z,917.8
2018-03-03T02:14:48.635Z,917.7
2018-03-03T02:15:48.516Z,917.7
2018-03-03T02:16:48.425Z,917.7
2018-03-03T02:17:48.302Z,917.6
2018-03-03T02:18:48.200Z,917.7
2018-03-03T02:19:48.076Z,917.8
2018-03-03T02:20:47.964Z,917.7
2018-03-03T02:21:47.900Z,917.6
2018-03-03T02:22:47.779Z,917.7
2018-03-03T02:23:48.032Z,917.6
2018-03-03T02:24:47.913Z,917.6
2018-03-03T02:25:47.773Z,917.6
2018-03-03T02:26:47.646Z,917.6
2018-03-03T02:27:47.534Z,917.6
2018-03-03T02:28:47.411Z,917.7
2018-03-03T02:29:47.316Z,917.8
2018-03-03T02:30:47.221Z,917.7
2018-03-03T02:31:47.138Z,917.3
2018-03-03T02:32:47.030Z,917.5
2018-03-03T02:33:47.332Z,917.7
2018-03-03T02:34:47.212Z,917.5
2018-03-03T02:35:47.126Z,917.4
2018-03-03T02:36:47.042Z,917.5
2018-03-03T02:37:46.962Z,917.6
2018-03-03T02:38:46.855Z,917.5
2018-03-03T02:39:46.736Z,917.4
2018-03-03T02:40:46.652Z,917.4
2018-03-03T02:41:46.565Z,917.5
2018-03-03T02:42:46.471Z,917.5
2018-03-03T02:43:46.763Z,917.4
2018-03-03T02:44:46.653Z,917.4
2018-03-03T02:45:46.548Z,917.4
2018-03-03T02:46:46.440Z,917.4
2018-03-03T02:47:46.349Z,917.3
2018-03-03T02:48:46.251Z,917.3
2018-03-03T02:49:46.133Z,917.3
2018-03-03T02:50:46.034Z,917.3
2018-03-03T02:51:45.945Z,917.3
2018-03-03T02:52:45.842Z,917.3
2018-03-03T02:53:46.163Z,917.3
2018-03-03T02:54:46.031Z,917.4
2018-03-03T02:55:45.927Z,917.3
2018-03-03T02:56:45.834Z,917.2
2018-03-03T02:57:45.736Z,917.2
2018-03-03T02:58:45.629Z,917.2
2018-03-03T02:59:45.553Z,917.1
2018-03-03T03:00:45.451Z,917.1
2018-03-03T03:01:45.356Z,917.2
2018-03-03T03:02:45.253Z,917.1
2018-03-03T03:03:45.544Z,917.2
2018-03-03T03:04:45.478Z,917
2018-03-03T03:05:45.375Z,917.1
2018-03-03T03:06:45.286Z,917.1
2018-03-03T03:07:45.169Z,917.1
2018-03-03T03:08:45.054Z,917.1
2018-03-03T03:09:44.944Z,917.2
2018-03-03T03:10:44.843Z,917.1
2018-03-03T03:11:44.720Z,917
2018-03-03T03:12:44.609Z,917
2018-03-03T03:13:44.880Z,917
2018-03-03T03:14:44.790Z,917
2018-03-03T03:15:44.713Z,917
2018-03-03T03:16:44.589Z,917
2018-03-03T03:17:44.502Z,917
2018-03-03T03:18:44.393Z,916.9
2018-03-03T03:19:44.274Z,916.9
2018-03-03T03:20:44.172Z,916.8
2018-03-03T03:21:44.074Z,916.6
2018-03-03T03:22:43.956Z,916.8
2018-03-03T03:23:44.228Z,916.8
2018-03-03T03:24:44.119Z,916.8
2018-03-03T03:25:43.999Z,916.8
2018-03-03T03:26:43.933Z,916.8
2018-03-03T03:27:43.822Z,916.8
2018-03-03T03:28:43.704Z,917
2018-03-03T03:29:43.593Z,916.9
2018-03-03T03:30:43.599Z,916.8
2018-03-03T03:31:43.481Z,916.7
2018-03-03T03:32:43.374Z,916.7
2018-03-03T03:33:43.655Z,916.7
2018-03-03T03:34:43.547Z,916.7
2018-03-03T03:35:43.439Z,916.9
2018-03-03T03:36:43.339Z,916.9
2018-03-03T03:37:43.252Z,916.8
2018-03-03T03:38:43.137Z,916.8
2018-03-03T03:39:43.035Z,916.8
2018-03-03T03:40:42.918Z,916.8
2018-03-03T03:41:42.800Z,916.8
2018-03-03T03:42:42.713Z,916.8
2018-03-03T03:43:42.989Z,916.9
2018-03-03T03:44:42.881Z,916.9
2018-03-03T03:45:42.781Z,916.9
2018-03-03T03:46:42.652Z,916.7
2018-03-03T03:47:42.537Z,916.6
2018-03-03T03:48:42.433Z,916.7
2018-03-03T03:49:42.311Z,916.6
2018-03-03T03:50:42.204Z,916.5
2018-03-03T03:51:42.086Z,916.7
2018-03-03T03:52:41.969Z,916.6
2018-03-03T03:53:42.244Z,916.7
2018-03-03T03:54:42.129Z,916.6
2018-03-03T03:55:41.996Z,916.6
2018-03-03T03:56:41.892Z,916.5
2018-03-03T03:57:41.767Z,916.5
2018-03-03T03:58:41.939Z,916.7
2018-03-03T03:59:41.819Z,916.5
2018-03-03T04:00:41.703Z,916.5
2018-03-03T04:01:41.577Z,916.4
2018-03-03T04:02:41.471Z,916.4
2018-03-03T04:03:41.704Z,916.4
2018-03-03T04:04:41.585Z,916.2
2018-03-03T04:05:41.479Z,916.5
2018-03-03T04:06:41.360Z,916.3
2018-03-03T04:07:41.231Z,916.4
2018-03-03T04:08:41.094Z,916.3
2018-03-03T04:09:41.000Z,916.3
2018-03-03T04:10:40.889Z,916.5
2018-03-03T04:11:40.762Z,916.2
2018-03-03T04:12:40.640Z,916.3
2018-03-03T04:13:40.879Z,916.4
2018-03-03T04:14:40.775Z,916.3
2018-03-03T04:15:40.668Z,916.3
2018-03-03T04:16:40.553Z,916.3
2018-03-03T04:17:40.431Z,916.3
2018-03-03T04:18:40.319Z,916.3
2018-03-03T04:19:40.209Z,916.2
2018-03-03T04:20:40.133Z,916.3
2018-03-03T04:21:40.019Z,916.2
2018-03-03T04:22:39.896Z,916.2
2018-03-03T04:23:40.162Z,916.3
2018-03-03T04:24:40.058Z,916.3
2018-03-03T04:25:39.935Z,916.2
2018-03-03T04:26:39.836Z,916.2
2018-03-03T04:27:39.704Z,916.2
2018-03-03T04:28:39.580Z,916.1
2018-03-03T04:29:39.521Z,916.1
2018-03-03T04:30:39.467Z,916
2018-03-03T04:31:39.373Z,916
2018-03-03T04:32:39.247Z,916.1
2018-03-03T04:33:39.545Z,916
2018-03-03T04:34:39.428Z,916
2018-03-03T04:35:39.301Z,915.9
2018-03-03T04:36:39.165Z,915.9
2018-03-03T04:37:39.072Z,915.9
2018-03-03T04:38:38.966Z,915.9
2018-03-03T04:39:38.850Z,915.9
2018-03-03T04:40:38.718Z,915.9
2018-03-03T04:41:38.599Z,915.8
2018-03-03T04:42:38.466Z,915.8
2018-03-03T04:43:38.726Z,915.8
2018-03-03T04:44:38.624Z,915.8
2018-03-03T04:45:38.503Z,915.7
2018-03-03T04:46:38.397Z,915.8
2018-03-03T04:47:38.284Z,915.7
2018-03-03T04:48:38.193Z,915.7
2018-03-03T04:49:38.074Z,915.9
2018-03-03T04:50:37.964Z,915.7
2018-03-03T04:51:37.877Z,915.8
2018-03-03T04:52:37.744Z,915.6
2018-03-03T04:53:38.283Z,915.7
2018-03-03T04:54:38.164Z,915.6
2018-03-03T04:55:38.052Z,915.6
2018-03-03T04:56:37.933Z,915.6
2018-03-03T04:57:37.817Z,915.7
2018-03-03T04:58:37.740Z,915.6
2018-03-03T04:59:37.632Z,915.6
2018-03-03T05:00:37.505Z,915.5
2018-03-03T05:01:37.375Z,915.5
2018-03-03T05:02:37.250Z,915.4
2018-03-03T05:03:37.492Z,915.4
2018-03-03T05:04:37.383Z,915.4
2018-03-03T05:05:37.260Z,915.1
2018-03-03T05:06:37.144Z,915.5
2018-03-03T05:07:37.030Z,915.4
2018-03-03T05:08:36.910Z,915.4
2018-03-03T05:09:36.827Z,915.3
2018-03-03T05:10:36.708Z,915.3
2018-03-03T05:11:36.591Z,915.4
2018-03-03T05:12:36.473Z,915.4
2018-03-03T05:13:36.785Z,915.5
2018-03-03T05:14:36.711Z,915.3
2018-03-03T05:15:36.584Z,915.3
2018-03-03T05:16:36.470Z,915.4
2018-03-03T05:17:36.357Z,915.3
2018-03-03T05:18:36.247Z,915.3
2018-03-03T05:19:36.149Z,915.3
2018-03-03T05:20:36.045Z,915.3
2018-03-03T05:21:35.928Z,915.3
2018-03-03T05:22:35.799Z,915.1
2018-03-03T05:23:36.126Z,915.2
2018-03-03T05:24:36.003Z,915.1
2018-03-03T05:25:36.158Z,915.3
2018-03-03T05:26:36.041Z,915
2018-03-03T05:27:35.948Z,915
2018-03-03T05:28:35.833Z,915.2
2018-03-03T05:29:35.718Z,915
2018-03-03T05:30:35.606Z,915.1
2018-03-03T05:31:35.507Z,915
2018-03-03T05:32:35.395Z,915
2018-03-03T05:33:35.651Z,915.1
2018-03-03T05:34:35.536Z,915.1
2018-03-03T05:35:35.432Z,915
2018-03-03T05:36:35.364Z,915.1
2018-03-03T05:37:35.244Z,915.1
2018-03-03T05:38:35.131Z,915.1
2018-03-03T05:39:35.017Z,915.2
2018-03-03T05:40:34.900Z,915.1
2018-03-03T05:41:35.072Z,915.2
2018-03-03T05:42:34.960Z,915.1
2018-03-03T05:43:35.226Z,915
2018-03-03T05:44:35.116Z,915.1
2018-03-03T05:45:34.993Z,915.2
2018-03-03T05:46:34.878Z,915.1
2018-03-03T05:47:34.791Z,915.1
2018-03-03T05:48:34.723Z,915.1
2018-03-03T05:49:34.608Z,915
2018-03-03T05:50:34.475Z,915
2018-03-03T05:51:34.363Z,915.1
2018-03-03T05:52:34.253Z,915
2018-03-03T05:53:34.527Z,915.1
2018-03-03T05:54:34.414Z,915
2018-03-03T05:55:34.308Z,914.9
2018-03-03T05:56:34.200Z,915.2
2018-03-03T05:57:34.117Z,914.9
2018-03-03T05:58:33.992Z,915
2018-03-03T05:59:33.885Z,915
2018-03-03T06:00:33.780Z,915
2018-03-03T06:01:33.658Z,915.1
2018-03-03T06:02:33.826Z,915.2
2018-03-03T06:03:34.117Z,915.1
2018-03-03T06:04:34.008Z,915
2018-03-03T06:05:33.889Z,915
2018-03-03T06:06:33.783Z,915
2018-03-03T06:07:33.659Z,915.2
2018-03-03T06:08:33.559Z,915.1
2018-03-03T06:09:33.437Z,915
2018-03-03T06:10:33.330Z,915.1
2018-03-03T06:11:33.230Z,915
2018-03-03T06:12:33.116Z,915.1
2018-03-03T06:13:33.447Z,915
2018-03-03T06:14:33.388Z,915.2
2018-03-03T06:15:33.272Z,914.9
2018-03-03T06:16:33.176Z,915
2018-03-03T06:17:33.058Z,915
2018-03-03T06:18:32.978Z,914.9
2018-03-03T06:19:32.878Z,915.1
2018-03-03T06:20:32.773Z,915.1
2018-03-03T06:21:32.667Z,915.1
2018-03-03T06:22:32.620Z,915.1
2018-03-03T06:23:32.863Z,915.1
2018-03-03T06:24:32.802Z,915.1
2018-03-03T06:25:32.679Z,915
2018-03-03T06:26:32.567Z,915.1
2018-03-03T06:27:32.457Z,915.2
2018-03-03T06:28:32.364Z,915
2018-03-03T06:29:32.254Z,915.2
2018-03-03T06:30:32.362Z,915.1
2018-03-03T06:31:32.244Z,915.1
2018-03-03T06:32:32.125Z,915.1
2018-03-03T06:33:32.414Z,915
2018-03-03T06:34:32.340Z,915.1
2018-03-03T06:35:32.252Z,915.1
2018-03-03T06:36:32.140Z,915
2018-03-03T06:37:32.248Z,915
2018-03-03T06:38:32.125Z,915
2018-03-03T06:39:32.020Z,915.1
2018-03-03T06:40:31.954Z,914.9
2018-03-03T06:41:31.887Z,914.9
2018-03-03T06:42:31.755Z,914.9
2018-03-03T06:43:32.103Z,914.9
2018-03-03T06:44:31.994Z,914.9
2018-03-03T06:45:31.909Z,914.9
2018-03-03T06:46:31.803Z,914.9
2018-03-03T06:47:31.698Z,914.9
2018-03-03T06:48:31.585Z,914.9
2018-03-03T06:49:31.505Z,914.9
2018-03-03T06:50:31.444Z,914.9
2018-03-03T06:51:31.331Z,914.9
2018-03-03T06:52:31.201Z,914.9
2018-03-03T06:53:31.478Z,914.9
2018-03-03T06:54:31.348Z,914.9
2018-03-03T06:55:31.217Z,914.9
2018-03-03T06:56:31.126Z,915
2018-03-03T06:57:31.002Z,915
2018-03-03T06:58:30.900Z,914.9
2018-03-03T06:59:30.793Z,914.8
2018-03-03T07:00:30.672Z,915
2018-03-03T07:01:30.581Z,914.8
2018-03-03T07:02:30.455Z,914.9
2018-03-03T07:03:30.708Z,914.8
2018-03-03T07:04:30.618Z,914.8
2018-03-03T07:05:30.511Z,914.8
2018-03-03T07:06:30.432Z,914.8
2018-03-03T07:07:30.312Z,914.7
2018-03-03T07:08:30.212Z,914.7
2018-03-03T07:09:30.109Z,914.6
2018-03-03T07:10:30.065Z,914.7
2018-03-03T07:11:29.933Z,914.5
2018-03-03T07:12:29.858Z,914.7
2018-03-03T07:13:30.097Z,914.7
2018-03-03T07:14:30.005Z,914.6
2018-03-03T07:15:29.895Z,914.7
2018-03-03T07:16:29.778Z,914.6
2018-03-03T07:17:29.658Z,914.6
2018-03-03T07:18:29.552Z,914.5
2018-03-03T07:19:29.446Z,914.6
2018-03-03T07:20:29.379Z,914.5
2018-03-03T07:21:29.255Z,914.5
2018-03-03T07:22:29.656Z,914.5
2018-03-03T07:23:30.047Z,914.7
2018-03-03T07:24:29.952Z,914.6
2018-03-03T07:25:29.880Z,914.5
2018-03-03T07:26:29.833Z,914.5
2018-03-03T07:27:29.742Z,914.5
2018-03-03T07:28:29.830Z,914.5
2018-03-03T07:29:29.720Z,914.5
2018-03-03T07:30:29.597Z,914.5
2018-03-03T07:31:29.487Z,914.6
2018-03-03T07:32:29.370Z,914.5
2018-03-03T07:33:29.654Z,914.6
2018-03-03T07:34:29.610Z,914.7
2018-03-03T07:35:29.710Z,914.6
2018-03-03T07:36:29.607Z,914.5
2018-03-03T07:37:29.542Z,914.6
2018-03-03T07:38:29.434Z,914.6
2018-03-03T07:39:29.342Z,914.2
2018-03-03T07:40:29.219Z,914.5
2018-03-03T07:41:29.095Z,914.6
2018-03-03T07:42:29.207Z,914.5
2018-03-03T07:43:29.553Z,914.6
2018-03-03T07:44:29.453Z,914.5
2018-03-03T07:45:29.341Z,914.5
2018-03-03T07:46:29.225Z,914.5
2018-03-03T07:47:29.120Z,914.4
2018-03-03T07:48:29.168Z,914.4
2018-03-03T07:49:29.065Z,914.5
2018-03-03T07:50:28.972Z,914.3
2018-03-03T07:51:28.860Z,914.4
2018-03-03T07:52:28.748Z,914.4
2018-03-03T07:53:29.070Z,914.3
2018-03-03T07:54:28.951Z,914.5
2018-03-03T07:55:28.840Z,914.5
2018-03-03T07:56:28.724Z,914.6
2018-03-03T07:57:28.660Z,914.5
2018-03-03T07:58:28.538Z,914.6
2018-03-03T07:59:28.427Z,914.6
2018-03-03T08:00:28.329Z,914.5
2018-03-03T08:01:28.216Z,914.5
2018-03-03T08:02:28.167Z,914.5
2018-03-03T08:03:28.471Z,914.2
2018-03-03T08:04:28.382Z,914.5
2018-03-03T08:05:28.323Z,914.6
2018-03-03T08:06:28.220Z,914.5
2018-03-03T08:07:28.125Z,914.5
2018-03-03T08:08:28.000Z,914.6
2018-03-03T08:09:27.904Z,914.5
2018-03-03T08:10:27.803Z,914.4
2018-03-03T08:11:27.718Z,914.4
2018-03-03T08:12:27.614Z,914.4
2018-03-03T08:13:27.896Z,914.4
2018-03-03T08:14:27.789Z,914.4
2018-03-03T08:15:27.670Z,914.5
2018-03-03T08:16:27.571Z,914.5
2018-03-03T08:17:27.467Z,914.5
2018-03-03T08:18:27.381Z,914.5
2018-03-03T08:19:27.285Z,914.5
2018-03-03T08:20:27.175Z,914.5
2018-03-03T08:21:27.075Z,914.4
2018-03-03T08:22:26.981Z,914.4
2018-03-03T08:23:27.291Z,914.3
2018-03-03T08:24:27.241Z,914.3
2018-03-03T08:25:27.111Z,914.4
2018-03-03T08:26:27.000Z,914.3
2018-03-03T08:27:26.906Z,914.4
2018-03-03T08:28:26.812Z,914.3
2018-03-03T08:29:26.703Z,914.2
2018-03-03T08:30:26.592Z,914.4
2018-03-03T08:31:26.472Z,914.3
2018-03-03T08:32:26.352Z,914.2
2018-03-03T08:33:26.648Z,914.3
2018-03-03T08:34:26.546Z,914.3
2018-03-03T08:35:26.441Z,914.2
2018-03-03T08:36:26.343Z,914.1
2018-03-03T08:37:26.229Z,914.2
2018-03-03T08:38:26.148Z,914.1
2018-03-03T08:39:26.063Z,914
2018-03-03T08:40:25.966Z,914.1
2018-03-03T08:41:25.839Z,914.2
2018-03-03T08:42:25.736Z,914.1
2018-03-03T08:43:25.984Z,914.1
2018-03-03T08:44:25.882Z,914.2
2018-03-03T08:45:25.775Z,914.3
2018-03-03T08:46:25.654Z,914.1
2018-03-03T08:47:25.560Z,914.1
2018-03-03T08:48:25.451Z,914.1
2018-03-03T08:49:25.390Z,914
2018-03-03T08:50:25.285Z,914.2
2018-03-03T08:51:25.763Z,914.1
2018-03-03T08:52:25.714Z,914.2
2018-03-03T08:53:25.959Z,914
2018-03-03T08:54:25.861Z,914
2018-03-03T08:55:25.760Z,914
2018-03-03T08:56:25.639Z,914.1
2018-03-03T08:57:25.537Z,914.2
2018-03-03T08:58:25.423Z,914.1
2018-03-03T08:59:25.377Z,914
2018-03-03T09:00:25.260Z,914
2018-03-03T09:01:25.155Z,914.2
2018-03-03T09:02:25.048Z,914
2018-03-03T09:03:25.388Z,914.1
2018-03-03T09:04:25.541Z,914.1
2018-03-03T09:05:25.451Z,914
2018-03-03T09:06:25.347Z,914
2018-03-03T09:07:25.236Z,914
2018-03-03T09:08:25.124Z,914
2018-03-03T09:09:25.019Z,913.8
2018-03-03T09:10:24.957Z,914
2018-03-03T09:11:24.858Z,914.1
2018-03-03T09:12:24.758Z,914
2018-03-03T09:13:25.070Z,914
2018-03-03T09:14:24.975Z,914
2018-03-03T09:15:25.046Z,914.1
2018-03-03T09:16:25.020Z,914
2018-03-03T09:17:24.921Z,914
2018-03-03T09:18:24.804Z,913.9
2018-03-03T09:19:24.712Z,913.9
2018-03-03T09:20:24.613Z,913.9
2018-03-03T09:21:24.524Z,913.9
2018-03-03T09:22:24.410Z,913.9
2018-03-03T09:23:24.728Z,913.9
2018-03-03T09:24:24.621Z,913.8
2018-03-03T09:25:24.517Z,913.8
2018-03-03T09:26:24.427Z,913.8
2018-03-03T09:27:24.332Z,913.8
2018-03-03T09:28:24.235Z,913.8
2018-03-03T09:29:24.135Z,913.7
2018-03-03T09:30:24.040Z,913.8
2018-03-03T09:31:24.208Z,913.8
2018-03-03T09:32:24.132Z,913.8
2018-03-03T09:33:24.411Z,913.8
2018-03-03T09:34:24.323Z,913.8
2018-03-03T09:35:24.210Z,913.7
2018-03-03T09:36:25.132Z,913.8
2018-03-03T09:37:25.046Z,913.7
2018-03-03T09:38:24.945Z,913.7
2018-03-03T09:39:24.850Z,913.7
2018-03-03T09:40:24.746Z,913.8
2018-03-03T09:41:24.653Z,913.7
2018-03-03T09:42:24.576Z,913.7
2018-03-03T09:43:24.871Z,913.7
2018-03-03T09:44:24.773Z,913.7
2018-03-03T09:45:24.777Z,913.7
2018-03-03T09:46:24.709Z,913.7
2018-03-03T09:47:24.613Z,913.7
2018-03-03T09:48:24.529Z,913.7
2018-03-03T09:49:24.457Z,913.7
2018-03-03T09:50:31.207Z,913.7
2018-03-03T09:51:31.326Z,913.6
2018-03-03T09:52:31.531Z,913.6
2018-03-03T09:53:31.852Z,913.6
